createdAt,value
2022-11-20T00:01:14.043Z,25.60
2022-11-20T00:15:50.558Z,31.52
2022-11-20T00:19:53.906Z,25.63
2022-11-20T00:23:59.663Z,27.10
2022-11-20T00:28:01.232Z,27.83
2022-11-20T00:32:02.788Z,25.52
2022-11-20T00:36:06.814Z,28.50
2022-11-20T00:40:09.066Z,25.95
2022-11-20T00:44:10.836Z,28.05
2022-11-20T00:48:12.363Z,23.13
2022-11-20T00:52:14.039Z,25.65
2022-11-20T00:56:18.097Z,26.50
2022-11-20T01:00:19.729Z,24.60
2022-11-20T01:04:21.313Z,22.15
2022-11-20T01:08:22.915Z,25.38
2022-11-20T01:12:24.477Z,22.17
2022-11-20T02:03:08.359Z,25.63
2022-11-20T02:07:10.546Z,25.20
2022-11-20T02:11:13.850Z,22.23
2022-11-20T02:15:15.481Z,26.08
2022-11-20T02:19:29.778Z,23.52
2022-11-20T02:23:40.625Z,23.98
2022-11-20T02:54:11.685Z,27.15
2022-11-20T03:03:33.741Z,29.50
2022-11-20T03:07:56.112Z,31.52
2022-11-20T03:15:27.373Z,36.08
2022-11-20T03:17:29.343Z,36.47
2022-11-20T03:22:27.310Z,32.97
2022-11-20T03:26:38.102Z,33.00
2022-11-20T03:30:41.303Z,33.22
2022-11-20T04:03:20.775Z,33.10
2022-11-20T04:07:24.968Z,36.35
2022-11-20T04:11:29.136Z,43.03
2022-11-20T04:15:34.387Z,35.67
2022-11-20T04:19:39.940Z,35.65
2022-11-20T04:23:41.623Z,38.63
2022-11-20T04:27:43.453Z,37.50
2022-11-20T04:31:45.245Z,35.75
2022-11-20T04:35:49.989Z,36.90
2022-11-20T05:05:56.289Z,43.00
2022-11-20T05:10:25.623Z,40.53
2022-11-20T05:14:28.361Z,37.42
2022-11-20T05:18:31.162Z,43.22
2022-11-20T05:22:32.848Z,35.25
2022-11-20T05:26:34.587Z,40.15
2022-11-20T05:30:36.147Z,48.50
2022-11-20T05:34:37.728Z,43.28
2022-11-20T05:38:39.668Z,41.60
2022-11-20T05:42:41.301Z,43.70
2022-11-20T05:46:43.042Z,42.42
2022-11-20T05:50:44.601Z,52.00
2022-11-20T05:54:46.160Z,41.40
2022-11-20T05:58:48.247Z,46.72
2022-11-20T06:02:50.001Z,43.30
2022-11-20T06:06:51.664Z,39.85
2022-11-20T06:10:53.315Z,45.42
2022-11-20T06:14:55.010Z,68.25
2022-11-20T06:18:56.597Z,32.72
2022-11-20T06:22:58.229Z,35.10
2022-11-20T06:31:58.325Z,35.70
2022-11-20T06:36:10.174Z,36.13
2022-11-20T06:40:13.220Z,39.05
2022-11-20T06:44:15.008Z,36.25
2022-11-20T06:48:16.717Z,33.22
2022-11-20T06:52:18.693Z,34.03
2022-11-20T06:56:20.390Z,34.95
2022-11-20T07:00:40.515Z,31.58
2022-11-20T07:04:49.058Z,28.45
2022-11-20T07:08:53.933Z,32.53
2022-11-20T07:12:55.911Z,23.77
2022-11-20T07:16:57.501Z,32.20
2022-11-20T07:21:06.878Z,28.20
2022-11-20T07:25:09.791Z,31.30
2022-11-20T07:33:12.856Z,28.13
2022-11-20T07:37:14.956Z,39.67
2022-11-20T07:41:16.586Z,31.00
2022-11-20T07:49:43.135Z,32.10
2022-11-20T07:53:44.839Z,31.92
2022-11-20T07:57:46.548Z,32.03
2022-11-20T08:01:48.357Z,32.35
2022-11-20T08:05:49.986Z,33.25
2022-11-20T08:09:51.642Z,30.05
2022-11-20T08:14:12.119Z,31.90
2022-11-20T08:22:35.622Z,27.38
2022-11-20T08:26:37.993Z,26.90
2022-11-20T08:30:39.723Z,26.35
2022-11-20T08:34:41.302Z,22.50
2022-11-20T08:38:42.918Z,23.38
2022-11-20T08:43:17.656Z,25.13
2022-11-20T08:47:20.550Z,23.90
2022-11-20T08:51:22.567Z,24.27
2022-11-20T08:55:24.102Z,25.17
2022-11-20T08:59:58.642Z,24.73
2022-11-20T09:03:47.654Z,24.83
2022-11-20T09:07:49.208Z,27.25
2022-11-20T09:11:51.350Z,28.00
2022-11-20T09:15:57.385Z,26.57
2022-11-20T09:19:59.143Z,26.42
2022-11-20T09:24:00.694Z,26.27
2022-11-20T09:28:02.462Z,29.92
2022-11-20T09:32:04.231Z,27.42
2022-11-20T09:36:06.132Z,23.98
2022-11-20T09:40:14.016Z,27.35
2022-11-20T09:44:35.219Z,25.50
2022-11-20T09:49:02.702Z,24.58
2022-11-20T09:53:13.737Z,27.13
2022-11-20T09:57:20.086Z,25.17
2022-11-20T10:01:27.189Z,26.88
2022-11-20T10:05:34.951Z,22.10
2022-11-20T10:09:44.072Z,21.27
2022-11-20T10:14:05.812Z,23.27
2022-11-20T10:18:07.474Z,21.17
2022-11-20T10:22:27.613Z,25.88
2022-11-20T10:26:53.570Z,22.33
2022-11-20T10:31:05.983Z,22.38
2022-11-20T10:35:16.611Z,21.47
2022-11-20T10:39:27.239Z,22.67
2022-11-20T10:43:34.189Z,23.20
2022-11-20T10:47:36.338Z,24.48
2022-11-20T10:52:12.969Z,17.53
2022-11-20T10:56:33.153Z,28.50
2022-11-20T11:01:35.494Z,26.40
2022-11-20T11:31:35.482Z,28.10
2022-11-20T11:35:51.587Z,35.28
2022-11-20T11:40:26.293Z,32.83
2022-11-20T11:44:52.793Z,29.23
2022-11-20T11:49:19.706Z,26.25
2022-11-20T11:53:28.831Z,26.38
2022-11-20T11:57:50.908Z,27.73
2022-11-20T12:01:58.665Z,27.10
2022-11-20T12:06:16.418Z,30.00
2022-11-20T12:10:23.862Z,28.42
2022-11-20T12:14:44.117Z,27.27
2022-11-20T12:18:49.099Z,28.80
2022-11-20T12:23:15.975Z,25.98
2022-11-20T12:27:43.902Z,24.88
2022-11-20T12:32:19.662Z,27.92
2022-11-20T12:37:03.904Z,25.17
2022-11-20T12:41:46.526Z,25.23
2022-11-20T12:46:24.815Z,22.08
2022-11-20T12:51:00.211Z,24.63
2022-11-20T12:55:12.683Z,24.48
2022-11-20T12:59:52.582Z,29.73
2022-11-20T13:04:03.277Z,29.42
2022-11-20T13:08:20.947Z,27.33
2022-11-20T13:12:44.225Z,25.50
2022-11-20T13:20:50.758Z,23.55
2022-11-20T13:24:53.298Z,31.00
2022-11-20T13:29:23.941Z,27.02
2022-11-20T13:33:36.420Z,31.65
2022-11-20T13:37:39.115Z,29.50
2022-11-20T13:41:41.640Z,24.45
2022-11-20T13:45:43.348Z,27.02
2022-11-20T13:49:49.378Z,24.95
2022-11-20T13:54:19.144Z,28.42
2022-11-20T13:58:33.569Z,27.60
2022-11-20T14:02:35.575Z,22.13
2022-11-20T14:06:51.754Z,27.17
2022-11-20T14:11:06.569Z,23.50
2022-11-20T14:15:26.660Z,27.77
2022-11-20T14:19:31.441Z,25.70
2022-11-20T14:23:33.149Z,23.80
2022-11-20T14:27:38.290Z,23.52
2022-11-20T14:31:40.078Z,24.25
2022-11-20T14:35:54.585Z,22.25
2022-11-20T14:39:57.281Z,20.65
2022-11-20T14:44:00.866Z,22.70
2022-11-20T14:48:02.484Z,20.92
2022-11-20T14:52:16.248Z,20.05
2022-11-20T14:56:24.075Z,21.80
2022-11-20T15:00:26.159Z,17.42
2022-11-20T15:04:28.354Z,18.57
2022-11-20T15:08:30.398Z,14.67
2022-11-20T15:12:33.694Z,20.05
2022-11-20T15:16:35.695Z,17.10
2022-11-20T15:20:37.293Z,18.65
2022-11-20T15:24:38.842Z,19.10
2022-11-20T15:28:45.059Z,20.17
2022-11-20T15:32:47.591Z,18.50
2022-11-20T15:36:49.377Z,16.48
2022-11-20T15:40:50.969Z,18.45
2022-11-20T15:44:52.523Z,18.90
2022-11-20T15:48:58.355Z,19.27
2022-11-20T15:53:00.148Z,19.55
2022-11-20T15:57:03.210Z,16.92
2022-11-20T16:05:12.230Z,15.40
2022-11-20T16:09:13.841Z,19.02
2022-11-20T16:13:37.700Z,19.00
2022-11-20T16:17:45.384Z,16.48
2022-11-20T16:21:47.306Z,14.50
2022-11-20T16:25:50.146Z,12.88
2022-11-20T16:29:51.728Z,16.40
2022-11-20T16:33:55.057Z,16.90
2022-11-20T16:37:57.765Z,12.93
2022-11-20T16:41:59.309Z,17.25
2022-11-20T16:46:04.473Z,10.60
2022-11-20T16:50:06.735Z,12.65
2022-11-20T16:54:09.997Z,14.17
2022-11-20T17:07:31.231Z,8.07
2022-11-20T17:11:33.663Z,6.88
2022-11-20T17:15:35.522Z,7.03
2022-11-20T17:19:42.968Z,5.63
2022-11-20T17:23:45.941Z,5.05
2022-11-20T17:31:49.222Z,10.20
2022-11-20T17:35:50.886Z,7.30
2022-11-20T17:39:52.547Z,8.00
2022-11-20T17:43:56.315Z,7.75
2022-11-20T17:47:57.944Z,6.47
2022-11-20T17:52:00.174Z,6.68
2022-11-20T17:56:20.463Z,4.73
2022-11-20T18:00:25.269Z,11.43
2022-11-20T18:08:28.920Z,5.68
2022-11-20T18:12:30.762Z,6.18
2022-11-20T18:16:41.224Z,10.00
2022-11-20T18:20:45.846Z,9.32
2022-11-20T18:24:47.905Z,4.63
2022-11-20T18:28:49.996Z,6.40
2022-11-20T18:33:10.392Z,7.50
2022-11-20T18:37:15.465Z,6.53
2022-11-20T18:41:38.254Z,11.90
2022-11-20T18:45:42.688Z,10.32
2022-11-20T18:49:50.934Z,9.55
2022-11-20T18:53:53.082Z,6.00
2022-11-20T18:57:55.327Z,6.88
2022-11-20T19:01:58.461Z,8.33
2022-11-20T19:06:00.490Z,10.77
2022-11-20T19:10:03.973Z,9.88
2022-11-20T19:14:06.808Z,9.32
2022-11-20T19:18:08.410Z,6.13
2022-11-20T19:22:10.376Z,8.50
2022-11-20T19:26:12.104Z,7.53
2022-11-20T19:30:15.261Z,7.35
2022-11-20T19:34:16.875Z,9.27
2022-11-20T19:38:18.926Z,11.70
2022-11-20T19:42:20.504Z,6.82
2022-11-20T19:46:23.436Z,9.77
2022-11-20T19:50:24.989Z,6.50
2022-11-20T19:54:27.089Z,8.13
2022-11-20T19:58:29.325Z,5.70
2022-11-20T20:02:34.317Z,5.60
2022-11-20T20:06:38.829Z,5.40
2022-11-20T20:10:40.945Z,5.60
2022-11-20T20:14:52.959Z,7.50
2022-11-20T20:19:24.422Z,4.47
2022-11-20T20:23:45.408Z,6.90
2022-11-20T20:28:46.400Z,7.90
2022-11-20T20:32:53.342Z,7.38
2022-11-20T20:36:57.964Z,6.15
2022-11-20T20:41:15.518Z,5.03
2022-11-20T20:45:19.113Z,5.93
2022-11-20T20:49:29.792Z,8.68
2022-11-20T20:53:38.583Z,5.85
2022-11-20T20:57:42.166Z,6.20
2022-11-20T21:01:44.178Z,8.55
2022-11-20T21:06:22.410Z,4.65
2022-11-20T21:15:07.724Z,5.97
2022-11-20T21:19:10.967Z,5.60
2022-11-20T21:23:15.109Z,3.40
2022-11-20T21:27:16.659Z,4.72
2022-11-20T21:31:22.247Z,5.32
2022-11-20T21:35:23.840Z,4.53
2022-11-20T21:39:25.532Z,5.82
2022-11-20T21:43:27.081Z,3.53
2022-11-20T21:47:28.658Z,4.30
2022-11-20T21:51:30.293Z,4.95
2022-11-20T21:55:31.923Z,4.43
2022-11-20T21:59:33.516Z,4.00
2022-11-20T22:03:35.890Z,3.83
2022-11-20T22:07:53.373Z,4.88
2022-11-20T22:20:47.946Z,2.78
2022-11-20T22:24:56.015Z,4.15
2022-11-20T22:29:08.555Z,4.55
2022-11-20T22:37:53.813Z,4.53
2022-11-20T22:41:55.418Z,4.20
2022-11-20T22:46:19.688Z,4.13
2022-11-20T22:50:21.940Z,4.15
2022-11-20T22:54:23.792Z,4.32
2022-11-20T22:58:31.233Z,5.67
2022-11-20T23:02:33.387Z,8.55
2022-11-20T23:06:35.156Z,5.30
2022-11-20T23:10:39.230Z,7.72
2022-11-20T23:14:56.994Z,6.35
2022-11-20T23:23:50.876Z,8.90
2022-11-20T23:28:10.092Z,8.88
2022-11-20T23:32:14.489Z,7.50
2022-11-20T23:36:26.568Z,8.00
2022-11-20T23:40:44.145Z,6.93
2022-11-20T23:44:45.875Z,6.80
2022-11-20T23:48:52.466Z,6.95
2022-11-20T23:53:00.010Z,9.55
2022-11-20T23:57:19.437Z,8.52
